createdAt,value
2017-08-23T00:00:16.799Z,1013.92
2017-08-23T00:01:16.794Z,1013.91
2017-08-23T00:02:16.786Z,1013.92
2017-08-23T00:03:16.782Z,1013.88
2017-08-23T00:04:16.770Z,1013.86
2017-08-23T00:05:16.762Z,1013.87
2017-08-23T00:06:16.759Z,1013.85
2017-08-23T00:07:16.751Z,1013.85
2017-08-23T00:08:16.742Z,1013.82
2017-08-23T00:09:16.740Z,1013.83
2017-08-23T00:10:16.731Z,1013.84
2017-08-23T00:11:16.727Z,1013.84
2017-08-23T00:12:16.725Z,1013.86
2017-08-23T00:13:16.717Z,1013.78
2017-08-23T00:14:16.712Z,1013.81
2017-08-23T00:15:16.703Z,1013.81
2017-08-23T00:16:16.698Z,1013.85
2017-08-23T00:17:16.690Z,1013.79
2017-08-23T00:18:16.686Z,1013.78
2017-08-23T00:19:16.677Z,1013.82
2017-08-23T00:20:16.665Z,1013.79
2017-08-23T00:21:16.662Z,1013.80
2017-08-23T00:22:16.653Z,1013.79
2017-08-23T00:23:16.650Z,1013.82
2017-08-23T00:24:16.643Z,1013.80
2017-08-23T00:25:16.634Z,1013.78
2017-08-23T00:26:16.632Z,1013.84
2017-08-23T00:27:16.621Z,1013.83
2017-08-23T00:28:16.618Z,1013.83
2017-08-23T00:29:16.614Z,1013.82
2017-08-23T00:30:16.604Z,1013.84
2017-08-23T00:31:16.600Z,1013.81
2017-08-23T00:32:16.591Z,1013.81
2017-08-23T00:33:16.587Z,1013.82
2017-08-23T00:34:16.578Z,1013.82
2017-08-23T00:35:16.577Z,1013.82
2017-08-23T00:36:16.564Z,1013.78
2017-08-23T00:37:16.555Z,1013.80
2017-08-23T00:38:16.551Z,1013.80
2017-08-23T00:39:16.541Z,1013.76
2017-08-23T00:40:16.537Z,1013.77
2017-08-23T00:41:16.532Z,1013.75
2017-08-23T00:42:16.522Z,1013.78
2017-08-23T00:43:16.533Z,1013.73
2017-08-23T00:44:16.515Z,1013.76
2017-08-23T00:45:16.506Z,1013.71
2017-08-23T00:46:16.502Z,1013.74
2017-08-23T00:47:16.493Z,1013.72
2017-08-23T00:48:16.488Z,1013.76
2017-08-23T00:49:16.479Z,1013.70
2017-08-23T00:50:16.476Z,1013.70
2017-08-23T00:51:16.468Z,1013.68
2017-08-23T00:52:16.456Z,1013.63
2017-08-23T00:53:16.450Z,1013.63
2017-08-23T00:54:16.442Z,1013.67
2017-08-23T00:55:16.439Z,1013.62
2017-08-23T00:56:16.435Z,1013.70
2017-08-23T00:57:16.428Z,1013.62
2017-08-23T00:58:16.423Z,1013.64
2017-08-23T00:59:16.413Z,1013.66
2017-08-23T01:00:16.403Z,1013.66
2017-08-23T01:01:16.398Z,1013.63
2017-08-23T01:02:16.389Z,1013.65
2017-08-23T01:03:16.386Z,1013.63
2017-08-23T01:04:16.375Z,1013.58
2017-08-23T01:05:16.372Z,1013.58
2017-08-23T01:06:16.378Z,1013.57
2017-08-23T01:07:16.358Z,1013.53
2017-08-23T01:08:16.354Z,1013.55
2017-08-23T01:09:16.348Z,1013.57
2017-08-23T01:10:16.342Z,1013.54
2017-08-23T01:11:16.333Z,1013.54
2017-08-23T01:12:16.325Z,1013.58
2017-08-23T01:13:16.322Z,1013.53
2017-08-23T01:14:16.312Z,1013.47
2017-08-23T01:15:16.308Z,1013.54
2017-08-23T01:16:16.300Z,1013.55
2017-08-23T01:17:16.287Z,1013.57
2017-08-23T01:18:16.299Z,1013.52
2017-08-23T01:19:16.274Z,1013.48
2017-08-23T01:20:16.268Z,1013.54
2017-08-23T01:21:16.259Z,1013.56
2017-08-23T01:22:16.259Z,1013.55
2017-08-23T01:23:16.247Z,1013.57
2017-08-23T01:24:16.243Z,1013.53
2017-08-23T01:25:16.238Z,1013.58
2017-08-23T01:26:16.232Z,1013.55
2017-08-23T01:27:16.225Z,1013.52
2017-08-23T01:28:16.216Z,1013.51
2017-08-23T01:29:16.207Z,1013.53
2017-08-23T01:30:16.204Z,1013.49
2017-08-23T01:31:16.195Z,1013.52
2017-08-23T01:32:16.181Z,1013.55
2017-08-23T01:33:16.177Z,1013.57
2017-08-23T01:34:16.170Z,1013.55
2017-08-23T01:35:16.165Z,1013.56
2017-08-23T01:36:16.154Z,1013.56
2017-08-23T01:37:16.149Z,1013.58
2017-08-23T01:38:16.141Z,1013.63
2017-08-23T01:39:16.136Z,1013.60
2017-08-23T01:40:16.132Z,1013.58
2017-08-23T01:41:16.123Z,1013.59
2017-08-23T01:42:16.118Z,1013.62
2017-08-23T01:43:16.110Z,1013.57
2017-08-23T01:44:16.109Z,1013.59
2017-08-23T01:45:16.098Z,1013.60
2017-08-23T01:46:16.087Z,1013.56
2017-08-23T01:47:16.083Z,1013.59
2017-08-23T01:48:16.090Z,1013.55
2017-08-23T01:49:16.062Z,1013.55
2017-08-23T01:50:16.057Z,1013.58
2017-08-23T01:51:16.048Z,1013.57
2017-08-23T01:52:16.041Z,1013.57
2017-08-23T01:53:16.033Z,1013.54
2017-08-23T01:54:16.028Z,1013.58
2017-08-23T01:55:16.019Z,1013.61
2017-08-23T01:56:16.015Z,1013.55
2017-08-23T01:57:16.009Z,1013.58
2017-08-23T01:58:16.002Z,1013.53
2017-08-23T01:59:15.996Z,1013.56
2017-08-23T02:00:15.983Z,1013.57
2017-08-23T02:01:15.974Z,1013.55
2017-08-23T02:02:15.976Z,1013.52
2017-08-23T02:03:15.961Z,1013.58
2017-08-23T02:04:15.955Z,1013.57
2017-08-23T02:05:15.950Z,1013.52
2017-08-23T02:06:15.942Z,1013.55
2017-08-23T02:07:15.937Z,1013.55
2017-08-23T02:08:15.926Z,1013.52
2017-08-23T02:09:15.921Z,1013.55
2017-08-23T02:10:15.912Z,1013.53
2017-08-23T02:11:15.908Z,1013.54
2017-08-23T02:12:15.895Z,1013.53
2017-08-23T02:13:15.885Z,1013.49
2017-08-23T02:14:15.880Z,1013.50
2017-08-23T02:15:15.873Z,1013.51
2017-08-23T02:16:15.863Z,1013.50
2017-08-23T02:17:15.857Z,1013.48
2017-08-23T02:18:15.847Z,1013.45
2017-08-23T02:19:15.842Z,1013.42
2017-08-23T02:20:15.838Z,1013.45
2017-08-23T02:21:15.830Z,1013.41
2017-08-23T02:22:15.824Z,1013.41
2017-08-23T02:23:15.815Z,1013.41
2017-08-23T02:24:15.809Z,1013.38
2017-08-23T02:25:15.800Z,1013.38
2017-08-23T02:26:15.794Z,1013.38
2017-08-23T02:27:15.784Z,1013.44
2017-08-23T02:28:15.773Z,1013.41
2017-08-23T02:29:15.766Z,1013.39
2017-08-23T02:30:15.758Z,1013.39
2017-08-23T02:31:15.750Z,1013.38
2017-08-23T02:32:15.745Z,1013.36
2017-08-23T02:33:15.734Z,1013.39
2017-08-23T02:34:15.730Z,1013.41
2017-08-23T02:35:15.740Z,1013.41
2017-08-23T02:36:15.715Z,1013.39
2017-08-23T02:37:15.711Z,1013.42
2017-08-23T02:38:15.701Z,1013.42
2017-08-23T02:39:15.696Z,1013.41
2017-08-23T02:40:15.686Z,1013.45
2017-08-23T02:41:15.685Z,1013.40
2017-08-23T02:42:15.671Z,1013.41
2017-08-23T02:43:15.665Z,1013.42
2017-08-23T02:44:15.654Z,1013.40
2017-08-23T02:45:15.644Z,1013.42
2017-08-23T02:46:15.638Z,1013.38
2017-08-23T02:47:15.629Z,1013.37
2017-08-23T02:48:15.620Z,1013.36
2017-08-23T02:49:15.622Z,1013.31
2017-08-23T02:50:15.606Z,1013.29
2017-08-23T02:51:15.600Z,1013.28
2017-08-23T02:52:15.596Z,1013.25
2017-08-23T02:53:15.587Z,1013.23
2017-08-23T02:54:15.598Z,1013.23
2017-08-23T02:55:15.572Z,1013.25
2017-08-23T02:56:15.564Z,1013.20
2017-08-23T02:57:15.555Z,1013.21
2017-08-23T02:58:15.551Z,1013.18
2017-08-23T02:59:15.541Z,1013.19
2017-08-23T03:00:15.528Z,1013.15
2017-08-23T03:01:15.524Z,1013.17
2017-08-23T03:02:15.513Z,1013.20
2017-08-23T03:03:15.507Z,1013.16
2017-08-23T03:04:15.502Z,1013.14
2017-08-23T03:05:15.493Z,1013.13
2017-08-23T03:06:15.488Z,1013.10
2017-08-23T03:07:15.479Z,1013.11
2017-08-23T03:08:15.466Z,1013.08
2017-08-23T03:09:15.460Z,1013.07
2017-08-23T03:10:15.452Z,1013.06
2017-08-23T03:11:15.444Z,1013.05
2017-08-23T03:12:15.442Z,1013.01
2017-08-23T03:13:15.428Z,1013.01
2017-08-23T03:14:15.419Z,1013.00
2017-08-23T03:15:15.415Z,1013.03
2017-08-23T03:16:15.409Z,1012.96
2017-08-23T03:17:15.399Z,1012.94
2017-08-23T03:18:15.394Z,1013.00
2017-08-23T03:19:15.385Z,1013.00
2017-08-23T03:20:15.375Z,1012.99
2017-08-23T03:21:15.371Z,1012.96
2017-08-23T03:22:15.361Z,1012.99
2017-08-23T03:23:15.354Z,1012.99
2017-08-23T03:24:15.342Z,1012.97
2017-08-23T03:25:15.332Z,1012.99
2017-08-23T03:26:15.331Z,1013.00
2017-08-23T03:27:15.318Z,1013.03
2017-08-23T03:28:15.311Z,1013.00
2017-08-23T03:29:15.301Z,1013.01
2017-08-23T03:30:15.296Z,1012.98
2017-08-23T03:31:15.289Z,1012.99
2017-08-23T03:32:15.281Z,1012.98
2017-08-23T03:33:15.276Z,1012.97
2017-08-23T03:34:15.266Z,1012.98
2017-08-23T03:35:15.261Z,1012.95
2017-08-23T03:36:15.252Z,1012.95
2017-08-23T03:37:15.242Z,1012.95
2017-08-23T03:38:15.237Z,1012.98
2017-08-23T03:39:15.227Z,1012.93
2017-08-23T03:40:15.213Z,1012.94
2017-08-23T03:41:15.209Z,1012.98
2017-08-23T03:42:15.198Z,1012.93
2017-08-23T03:43:15.193Z,1012.93
2017-08-23T03:44:15.181Z,1012.93
2017-08-23T03:45:15.177Z,1012.91
2017-08-23T03:46:15.166Z,1012.90
2017-08-23T03:47:15.159Z,1012.94
2017-08-23T03:48:15.156Z,1012.90
2017-08-23T03:49:15.148Z,1012.91
2017-08-23T03:50:15.191Z,1012.90
2017-08-23T03:51:15.131Z,1012.92
2017-08-23T03:52:15.121Z,1012.88
2017-08-23T03:53:15.116Z,1012.86
2017-08-23T03:54:15.107Z,1012.89
2017-08-23T03:55:15.101Z,1012.90
2017-08-23T03:56:15.086Z,1012.92
2017-08-23T03:57:15.078Z,1012.89
2017-08-23T03:58:15.072Z,1012.90
2017-08-23T03:59:15.062Z,1012.91
2017-08-23T04:00:15.056Z,1012.93
2017-08-23T04:01:15.046Z,1012.89
2017-08-23T04:02:15.039Z,1012.88
2017-08-23T04:03:15.030Z,1012.92
2017-08-23T04:04:15.024Z,1012.87
2017-08-23T04:05:15.018Z,1012.84
2017-08-23T04:06:15.009Z,1012.85
2017-08-23T04:07:15.004Z,1012.80
2017-08-23T04:08:14.990Z,1012.86
2017-08-23T04:09:14.981Z,1012.85
2017-08-23T04:10:14.974Z,1012.81
2017-08-23T04:11:14.965Z,1012.83
2017-08-23T04:12:14.959Z,1012.81
2017-08-23T04:13:14.953Z,1012.78
2017-08-23T04:14:14.944Z,1012.78
2017-08-23T04:15:14.938Z,1012.80
2017-08-23T04:16:14.926Z,1012.81
2017-08-23T04:17:14.921Z,1012.77
2017-08-23T04:18:14.911Z,1012.83
2017-08-23T04:19:14.908Z,1012.78
2017-08-23T04:20:14.891Z,1012.77
2017-08-23T04:21:14.882Z,1012.73
2017-08-23T04:22:14.877Z,1012.74
2017-08-23T04:23:14.866Z,1012.70
2017-08-23T04:24:14.855Z,1012.68
2017-08-23T04:25:14.851Z,1012.69
2017-08-23T04:26:14.841Z,1012.59
2017-08-23T04:27:14.851Z,1012.64
2017-08-23T04:28:14.829Z,1012.61
2017-08-23T04:29:14.820Z,1012.64
2017-08-23T04:30:14.814Z,1012.63
2017-08-23T04:31:14.803Z,1012.57
2017-08-23T04:32:14.796Z,1012.68
2017-08-23T04:33:14.786Z,1012.61
2017-08-23T04:34:14.779Z,1012.56
2017-08-23T04:35:14.770Z,1012.58
2017-08-23T04:36:14.757Z,1012.57
2017-08-23T04:37:14.751Z,1012.56
2017-08-23T04:38:14.740Z,1012.59
2017-08-23T04:39:14.734Z,1012.59
2017-08-23T04:40:14.724Z,1012.60
2017-08-23T04:41:14.716Z,1012.64
2017-08-23T04:42:14.710Z,1012.63
2017-08-23T04:43:14.700Z,1012.61
2017-08-23T04:44:14.695Z,1012.62
2017-08-23T04:45:14.689Z,1012.63
2017-08-23T04:46:14.679Z,1012.64
2017-08-23T04:47:14.673Z,1012.69
2017-08-23T04:48:14.661Z,1012.62
2017-08-23T04:49:14.656Z,1012.64
2017-08-23T04:50:14.645Z,1012.68
2017-08-23T04:51:14.639Z,1012.66
2017-08-23T04:52:14.626Z,1012.61
2017-08-23T04:53:14.615Z,1012.62
2017-08-23T04:54:14.609Z,1012.66
2017-08-23T04:55:14.599Z,1012.69
2017-08-23T04:56:14.590Z,1012.73
2017-08-23T04:57:14.585Z,1012.74
2017-08-23T04:58:14.574Z,1012.78
2017-08-23T04:59:14.569Z,1012.72
2017-08-23T05:00:14.566Z,1012.73
2017-08-23T05:01:14.854Z,1012.74
2017-08-23T05:02:14.548Z,1012.73
2017-08-23T05:03:14.540Z,1012.77
2017-08-23T05:04:14.530Z,1012.71
2017-08-23T05:05:14.521Z,1012.79
2017-08-23T05:06:14.516Z,1012.77
2017-08-23T05:07:14.504Z,1012.80
2017-08-23T05:08:14.493Z,1012.75
2017-08-23T05:09:14.487Z,1012.73
2017-08-23T05:10:14.476Z,1012.82
2017-08-23T05:11:14.472Z,1012.89
2017-08-23T05:12:14.459Z,1012.89
2017-08-23T05:13:14.455Z,1012.90
2017-08-23T05:14:14.445Z,1012.98
2017-08-23T05:15:14.439Z,1013.10
2017-08-23T05:16:14.435Z,1013.12
2017-08-23T05:17:14.426Z,1013.08
2017-08-23T05:18:14.420Z,1013.10
2017-08-23T05:19:14.412Z,1013.13
2017-08-23T05:20:14.404Z,1013.19
2017-08-23T05:21:14.395Z,1013.16
2017-08-23T05:22:14.394Z,1013.16
2017-08-23T05:23:14.382Z,1013.20
2017-08-23T05:24:14.375Z,1013.17
2017-08-23T05:25:14.366Z,1012.98
2017-08-23T05:26:14.356Z,1012.90
2017-08-23T05:27:14.354Z,1012.81
2017-08-23T05:28:14.347Z,1012.84
2017-08-23T05:29:14.338Z,1012.85
2017-08-23T05:30:14.334Z,1012.97
2017-08-23T05:31:14.329Z,1012.93
2017-08-23T05:32:14.325Z,1012.88
2017-08-23T05:33:14.321Z,1012.94
2017-08-23T05:34:14.313Z,1013.02
2017-08-23T05:35:14.311Z,1013.00
2017-08-23T05:36:14.300Z,1013.08
2017-08-23T05:37:14.297Z,1013.11
2017-08-23T05:38:14.290Z,1013.03
2017-08-23T05:39:14.287Z,1013.04
2017-08-23T05:40:14.277Z,1013.19
2017-08-23T05:41:14.269Z,1013.44
2017-08-23T05:42:14.267Z,1013.55
2017-08-23T05:43:14.259Z,1013.54
2017-08-23T05:44:14.253Z,1013.59
2017-08-23T05:45:14.253Z,1013.61
2017-08-23T05:46:14.243Z,1013.71
2017-08-23T05:47:14.241Z,1013.75
2017-08-23T05:48:14.240Z,1013.72
2017-08-23T05:49:14.234Z,1013.79
2017-08-23T05:50:14.233Z,1013.81
2017-08-23T05:51:14.227Z,1013.83
2017-08-23T05:52:14.223Z,1013.83
2017-08-23T05:53:14.220Z,1013.82
2017-08-23T05:54:14.219Z,1013.84
2017-08-23T05:55:14.214Z,1013.91
2017-08-23T05:56:14.207Z,1013.87
2017-08-23T05:57:14.207Z,1013.90
2017-08-23T05:58:14.203Z,1013.90
2017-08-23T05:59:14.203Z,1013.94
2017-08-23T06:00:14.200Z,1013.95
2017-08-23T06:01:14.196Z,1013.93
2017-08-23T06:02:14.198Z,1013.92
2017-08-23T06:03:14.195Z,1013.93
2017-08-23T06:04:14.198Z,1014.00
2017-08-23T06:05:14.200Z,1013.89
2017-08-23T06:06:14.198Z,1013.91
2017-08-23T06:07:14.200Z,1013.96
2017-08-23T06:08:14.197Z,1014.01
2017-08-23T06:09:14.200Z,1014.09
2017-08-23T06:10:14.198Z,1014.01
2017-08-23T06:11:14.201Z,1014.04
2017-08-23T06:12:14.198Z,1014.08
2017-08-23T06:13:14.195Z,1014.07
2017-08-23T06:14:14.198Z,1014.11
2017-08-23T06:15:14.200Z,1014.15
2017-08-23T06:16:14.203Z,1014.09
2017-08-23T06:17:14.207Z,1014.12
2017-08-23T06:18:14.208Z,1014.10
2017-08-23T06:19:14.212Z,1014.10
2017-08-23T06:20:14.208Z,1014.18
2017-08-23T06:21:14.210Z,1014.16
2017-08-23T06:22:14.214Z,1014.18
2017-08-23T06:23:14.217Z,1014.14
2017-08-23T06:24:14.218Z,1014.16
2017-08-23T06:25:14.220Z,1014.14
2017-08-23T06:26:14.224Z,1014.16
2017-08-23T06:27:14.227Z,1014.17
2017-08-23T06:28:14.235Z,1014.18
2017-08-23T06:29:14.239Z,1014.16
2017-08-23T06:30:14.241Z,1014.15
2017-08-23T06:31:14.246Z,1014.17
2017-08-23T06:32:14.249Z,1014.17
2017-08-23T06:33:14.251Z,1014.19
2017-08-23T06:34:14.256Z,1014.15
2017-08-23T06:35:14.258Z,1014.14
2017-08-23T06:36:14.257Z,1014.14
2017-08-23T06:37:14.263Z,1014.17
2017-08-23T06:38:14.266Z,1014.22
2017-08-23T06:39:14.272Z,1014.20
2017-08-23T06:40:14.272Z,1014.17
2017-08-23T06:41:14.280Z,1014.21
2017-08-23T06:42:14.282Z,1014.21
2017-08-23T06:43:14.287Z,1014.15
2017-08-23T06:44:14.295Z,1014.21
2017-08-23T06:45:14.298Z,1014.20
2017-08-23T06:46:14.305Z,1014.18
2017-08-23T06:47:14.307Z,1014.22
2017-08-23T06:48:14.311Z,1014.23
2017-08-23T06:49:14.317Z,1014.25
2017-08-23T06:50:14.320Z,1014.24
2017-08-23T06:51:14.326Z,1014.27
2017-08-23T06:52:14.330Z,1014.31
2017-08-23T06:53:14.329Z,1014.31
2017-08-23T06:54:14.335Z,1014.32
2017-08-23T06:55:14.339Z,1014.32
2017-08-23T06:56:14.344Z,1014.39
2017-08-23T06:57:14.349Z,1014.38
2017-08-23T06:58:14.356Z,1014.43
2017-08-23T06:59:14.359Z,1014.40
2017-08-23T07:00:14.368Z,1014.43
2017-08-23T07:01:14.376Z,1014.47
2017-08-23T07:02:14.381Z,1014.45
2017-08-23T07:03:14.388Z,1014.49
2017-08-23T07:04:14.394Z,1014.47
2017-08-23T07:05:14.398Z,1014.50
2017-08-23T07:06:14.407Z,1014.51
2017-08-23T07:07:14.411Z,1014.44
2017-08-23T07:08:14.412Z,1014.45
2017-08-23T07:09:14.422Z,1014.48
2017-08-23T07:10:14.426Z,1014.53
2017-08-23T07:11:14.436Z,1014.54
2017-08-23T07:12:14.439Z,1014.54
2017-08-23T07:13:14.449Z,1014.58
2017-08-23T07:14:14.454Z,1014.54
2017-08-23T07:15:14.464Z,1013.62
2017-08-23T07:16:14.474Z,1013.62
2017-08-23T07:17:14.781Z,1013.67
2017-08-23T07:18:14.490Z,1013.61
2017-08-23T07:19:14.495Z,1013.61
2017-08-23T07:20:14.501Z,1013.71
2017-08-23T07:21:14.507Z,1013.58
2017-08-23T07:22:14.512Z,1013.61
2017-08-23T07:23:14.524Z,1013.62
2017-08-23T07:24:14.534Z,1013.61
2017-08-23T07:25:14.540Z,1013.61
2017-08-23T07:26:14.551Z,1013.61
2017-08-23T07:27:14.557Z,1013.62
2017-08-23T07:28:14.563Z,1013.62
2017-08-23T07:29:14.571Z,1013.63
2017-08-23T07:30:14.582Z,1013.62
2017-08-23T07:31:14.588Z,1013.65
2017-08-23T07:32:14.592Z,1013.65
2017-08-23T07:33:14.603Z,1013.63
2017-08-23T07:34:14.607Z,1013.63
2017-08-23T07:35:14.618Z,1013.63
2017-08-23T07:36:14.628Z,1013.65
2017-08-23T07:37:14.634Z,1013.65
2017-08-23T07:38:14.644Z,1013.63
2017-08-23T07:39:14.650Z,1013.69
2017-08-23T07:40:14.663Z,1013.69
2017-08-23T07:41:14.675Z,1013.61
2017-08-23T07:42:14.681Z,1013.62
2017-08-23T07:43:14.692Z,1013.61
2017-08-23T07:44:14.700Z,1013.58
2017-08-23T07:45:14.711Z,1013.55
2017-08-23T07:46:14.727Z,1013.60
2017-08-23T07:47:14.733Z,1013.60
2017-08-23T07:48:14.737Z,1013.61
2017-08-23T07:49:14.744Z,1013.60
2017-08-23T07:50:14.757Z,1013.60
2017-08-23T07:51:14.766Z,1013.57
2017-08-23T07:52:14.779Z,1013.52
2017-08-23T07:53:14.792Z,1013.45
2017-08-23T07:54:14.798Z,1013.53
2017-08-23T07:55:14.812Z,1013.53
2017-08-23T07:56:14.825Z,1013.47
2017-08-23T07:57:14.835Z,1013.47
2017-08-23T07:58:14.849Z,1013.48
2017-08-23T07:59:14.857Z,1013.41
2017-08-23T08:00:14.869Z,1013.50
2017-08-23T08:01:14.879Z,1013.46
2017-08-23T08:02:14.893Z,1013.47
2017-08-23T08:03:15.253Z,1013.48
2017-08-23T08:04:14.907Z,1013.48
2017-08-23T08:05:14.922Z,1013.44
2017-08-23T08:06:14.932Z,1013.47
2017-08-23T08:07:14.949Z,1013.41
2017-08-23T08:08:14.955Z,1013.46
2017-08-23T08:09:14.965Z,1013.45
2017-08-23T08:10:14.978Z,1013.49
2017-08-23T08:11:14.987Z,1013.42
2017-08-23T08:12:15.002Z,1013.42
2017-08-23T08:13:15.015Z,1013.44
2017-08-23T08:14:15.024Z,1013.48
2017-08-23T08:15:15.038Z,1013.46
2017-08-23T08:16:15.045Z,1013.48
2017-08-23T08:17:15.057Z,1013.57
2017-08-23T08:18:15.066Z,1013.55
2017-08-23T08:19:15.081Z,1013.60
2017-08-23T08:20:15.086Z,1013.59
2017-08-23T08:21:15.095Z,1013.56
2017-08-23T08:22:15.110Z,1013.62
2017-08-23T08:23:15.119Z,1013.61
2017-08-23T08:24:15.132Z,1013.58
2017-08-23T08:25:15.146Z,1013.56
2017-08-23T08:26:15.155Z,1013.52
2017-08-23T08:27:15.168Z,1013.53
2017-08-23T08:28:15.180Z,1013.50
2017-08-23T08:29:15.185Z,1013.55
2017-08-23T08:30:15.198Z,1013.46
2017-08-23T08:31:15.207Z,1013.51
2017-08-23T08:32:15.223Z,1013.50
2017-08-23T08:33:15.233Z,1013.52
2017-08-23T08:34:15.245Z,1013.55
2017-08-23T08:35:15.255Z,1013.52
2017-08-23T08:36:15.271Z,1013.49
2017-08-23T08:37:15.285Z,1013.52
2017-08-23T08:38:15.296Z,1013.54
2017-08-23T08:39:15.310Z,1013.52
2017-08-23T08:40:15.322Z,1013.54
2017-08-23T08:41:15.335Z,1013.61
2017-08-23T08:42:15.350Z,1013.62
2017-08-23T08:43:15.368Z,1013.61
2017-08-23T08:44:15.369Z,1013.66
2017-08-23T08:45:15.385Z,1013.65
2017-08-23T08:46:15.395Z,1013.71
2017-08-23T08:47:15.412Z,1013.64
2017-08-23T08:48:15.428Z,1013.72
2017-08-23T08:49:15.438Z,1013.73
2017-08-23T08:50:15.449Z,1013.67
2017-08-23T08:51:15.466Z,1013.68
2017-08-23T08:52:15.484Z,1013.72
2017-08-23T08:53:15.495Z,1013.74
2017-08-23T08:54:15.511Z,1013.72
2017-08-23T08:55:15.523Z,1013.77
2017-08-23T08:56:15.535Z,1013.80
2017-08-23T08:57:15.552Z,1013.78
2017-08-23T08:58:15.565Z,1013.82
2017-08-23T08:59:15.583Z,1013.85
2017-08-23T09:00:15.590Z,1013.87
2017-08-23T09:01:15.603Z,1013.83
2017-08-23T09:02:15.620Z,1013.82
2017-08-23T09:03:15.634Z,1013.79
2017-08-23T09:04:15.649Z,1013.76
2017-08-23T09:05:15.664Z,1013.78
2017-08-23T09:06:15.680Z,1013.76
2017-08-23T09:07:15.703Z,1013.78
2017-08-23T09:08:15.713Z,1013.75
2017-08-23T09:09:15.732Z,1013.80
2017-08-23T09:10:15.746Z,1013.75
2017-08-23T09:11:15.764Z,1013.71
2017-08-23T09:12:15.780Z,1013.64
2017-08-23T09:13:16.145Z,1013.61
2017-08-23T09:14:15.811Z,1013.61
2017-08-23T09:15:15.826Z,1013.56
2017-08-23T09:16:15.838Z,1013.54
2017-08-23T09:17:15.856Z,1013.51
2017-08-23T09:18:15.870Z,1013.45
2017-08-23T09:19:15.890Z,1013.42
2017-08-23T09:20:15.902Z,1013.38
2017-08-23T09:21:15.921Z,1013.35
2017-08-23T09:22:15.935Z,1013.36
2017-08-23T09:23:15.952Z,1013.40
2017-08-23T09:24:15.971Z,1013.37
2017-08-23T09:25:15.986Z,1013.40
2017-08-23T09:26:16.004Z,1013.39
2017-08-23T09:27:16.019Z,1013.41
2017-08-23T09:28:16.034Z,1013.36
2017-08-23T09:29:16.047Z,1013.35
2017-08-23T09:30:16.065Z,1013.36
2017-08-23T09:31:16.079Z,1013.33
2017-08-23T09:32:16.098Z,1013.33
2017-08-23T09:33:16.117Z,1013.38
2017-08-23T09:34:16.132Z,1013.36
2017-08-23T09:35:16.150Z,1013.32
2017-08-23T09:36:16.164Z,1013.32
2017-08-23T09:37:16.184Z,1013.35
2017-08-23T09:38:16.199Z,1013.29
2017-08-23T09:39:16.217Z,1013.27
2017-08-23T09:40:16.228Z,1013.17
2017-08-23T09:41:16.243Z,1013.23
2017-08-23T09:42:16.262Z,1013.23
2017-08-23T09:43:16.277Z,1013.23
2017-08-23T09:44:16.293Z,1013.24
2017-08-23T09:45:16.312Z,1013.28
2017-08-23T09:46:16.327Z,1013.28
2017-08-23T09:47:16.343Z,1013.23
2017-08-23T09:48:16.365Z,1013.30
2017-08-23T09:49:16.379Z,1013.29
2017-08-23T09:50:16.397Z,1013.24
2017-08-23T09:51:16.412Z,1013.27
2017-08-23T09:52:16.430Z,1013.30
2017-08-23T09:53:16.442Z,1013.27
2017-08-23T09:54:16.462Z,1013.27
2017-08-23T09:55:16.475Z,1013.28
2017-08-23T09:56:16.485Z,1013.22
2017-08-23T09:57:16.512Z,1013.24
2017-08-23T09:58:16.518Z,1013.23
2017-08-23T09:59:16.538Z,1013.23
2017-08-23T10:00:16.549Z,1013.23
2017-08-23T10:01:16.564Z,1013.23
2017-08-23T10:02:16.583Z,1013.28
2017-08-23T10:03:16.594Z,1013.22
2017-08-23T10:04:16.614Z,1013.22
2017-08-23T10:05:16.631Z,1013.20
2017-08-23T10:06:16.646Z,1013.23
2017-08-23T10:07:16.663Z,1013.21
2017-08-23T10:08:16.675Z,1013.21
2017-08-23T10:09:16.693Z,1013.21
2017-08-23T10:10:16.709Z,1013.24
2017-08-23T10:11:16.724Z,1013.22
2017-08-23T10:12:16.741Z,1013.27
2017-08-23T10:13:16.748Z,1013.22
2017-08-23T10:14:16.766Z,1013.27
2017-08-23T10:15:16.798Z,1013.23
2017-08-23T10:16:16.794Z,1013.23
2017-08-23T10:17:16.812Z,1013.22
2017-08-23T10:18:16.828Z,1013.15
2017-08-23T10:19:16.843Z,1013.16
2017-08-23T10:20:16.865Z,1013.20
2017-08-23T10:21:16.875Z,1013.17
2017-08-23T10:22:16.894Z,1013.14
2017-08-23T10:23:16.907Z,1013.15
2017-08-23T10:24:16.924Z,1013.11
2017-08-23T10:25:16.938Z,1013.16
2017-08-23T10:26:16.954Z,1013.13
2017-08-23T10:27:16.970Z,1013.06
2017-08-23T10:28:16.980Z,1013.10
2017-08-23T10:29:16.996Z,1013.10
2017-08-23T10:30:17.010Z,1013.07
2017-08-23T10:31:17.029Z,1013.05
2017-08-23T10:32:17.047Z,1013.04
2017-08-23T10:33:17.061Z,1013.02
2017-08-23T10:34:17.078Z,1013.01
2017-08-23T10:35:17.093Z,1013.03
2017-08-23T10:36:17.106Z,1013.03
2017-08-23T10:37:17.121Z,1013.00
2017-08-23T10:38:17.135Z,1013.04
2017-08-23T10:39:17.153Z,1013.03
2017-08-23T10:40:17.167Z,1012.98
2017-08-23T10:41:17.183Z,1013.06
2017-08-23T10:42:17.198Z,1012.92
2017-08-23T10:43:17.216Z,1012.97
2017-08-23T10:44:17.234Z,1013.02
2017-08-23T10:45:17.248Z,1013.04
2017-08-23T10:46:17.276Z,1013.05
2017-08-23T10:47:17.282Z,1012.95
2017-08-23T10:48:17.293Z,1012.95
2017-08-23T10:49:17.312Z,1012.87
2017-08-23T10:50:17.325Z,1012.84
2017-08-23T10:51:17.342Z,1012.86
2017-08-23T10:52:17.352Z,1012.88
2017-08-23T10:53:17.368Z,1012.86
2017-08-23T10:54:17.382Z,1012.82
2017-08-23T10:55:17.394Z,1012.81
2017-08-23T10:56:17.409Z,1012.80
2017-08-23T10:57:17.424Z,1012.87
2017-08-23T10:58:17.437Z,1012.93
2017-08-23T10:59:17.450Z,1012.93
2017-08-23T11:00:17.466Z,1012.87
2017-08-23T11:01:17.482Z,1012.89
2017-08-23T11:02:17.494Z,1012.91
2017-08-23T11:03:17.509Z,1012.82
2017-08-23T11:04:17.522Z,1012.95
2017-08-23T11:05:17.535Z,1012.94
2017-08-23T11:06:17.554Z,1012.83
2017-08-23T11:07:17.561Z,1012.84
2017-08-23T11:08:17.570Z,1012.79
2017-08-23T11:09:17.585Z,1012.73
2017-08-23T11:10:17.596Z,1012.74
2017-08-23T11:11:17.612Z,1012.75
2017-08-23T11:12:17.622Z,1012.74
2017-08-23T11:13:17.637Z,1012.77
2017-08-23T11:14:17.658Z,1012.66
2017-08-23T11:15:17.666Z,1012.61
2017-08-23T11:16:17.681Z,1012.58
2017-08-23T11:17:17.693Z,1012.54
2017-08-23T11:18:17.709Z,1012.56
2017-08-23T11:19:17.721Z,1012.49
2017-08-23T11:20:17.733Z,1012.43
2017-08-23T11:21:17.747Z,1012.43
2017-08-23T11:22:17.759Z,1012.36
2017-08-23T11:23:17.772Z,1012.39
2017-08-23T11:24:17.782Z,1012.34
2017-08-23T11:25:17.793Z,1012.31
2017-08-23T11:26:17.807Z,1012.21
2017-08-23T11:27:17.819Z,1012.11
2017-08-23T11:28:17.842Z,1012.08
2017-08-23T11:29:17.842Z,1012.06
2017-08-23T11:30:17.856Z,1012.04
2017-08-23T11:31:17.875Z,1011.89
2017-08-23T11:32:17.880Z,1011.98
2017-08-23T11:33:17.892Z,1011.92
2017-08-23T11:34:17.900Z,1011.91
2017-08-23T11:35:17.918Z,1011.86
2017-08-23T11:36:17.920Z,1011.85
2017-08-23T11:37:17.926Z,1011.88
2017-08-23T11:38:17.939Z,1011.87
2017-08-23T11:39:17.946Z,1011.91
2017-08-23T11:40:17.957Z,1011.89
2017-08-23T11:41:17.966Z,1011.89
2017-08-23T11:42:17.973Z,1011.92
2017-08-23T11:43:17.982Z,1011.89
2017-08-23T11:44:17.989Z,1011.89
2017-08-23T11:45:17.997Z,1011.93
2017-08-23T11:46:18.002Z,1011.90
2017-08-23T11:47:18.011Z,1011.91
2017-08-23T11:48:18.012Z,1011.91
2017-08-23T11:49:18.036Z,1011.91
2017-08-23T11:50:18.029Z,1011.93
2017-08-23T11:51:18.035Z,1011.97
2017-08-23T11:52:18.035Z,1011.99
2017-08-23T11:53:18.043Z,1011.94
2017-08-23T11:54:18.045Z,1011.91
2017-08-23T11:55:18.054Z,1011.92
2017-08-23T11:56:18.063Z,1011.90
2017-08-23T11:57:18.067Z,1011.85
2017-08-23T11:58:18.074Z,1011.80
2017-08-23T11:59:18.081Z,1011.79
2017-08-23T12:00:18.085Z,1011.80
2017-08-23T12:01:18.087Z,1011.71
2017-08-23T12:02:18.131Z,1011.66
2017-08-23T12:03:18.098Z,1011.66
2017-08-23T12:04:18.097Z,1011.62
2017-08-23T12:05:18.105Z,1011.61